Time;durP1;ratioP1;P1;durP2;ratioP2;P2;SDS_P1;SDS_P2;PMS_P1;PMS_P2;Temp;Humidity;BMP_temperature;BMP_pressure;BME280_temperature;BME280_humidity;BME280_pressure;Samples;Min_cycle;Max_cycle;Signal;HPM_P1;HPM_P2
2021/05/20 00:01:00;;;;;;;40.72;27.25;;;8.50;96.00;;;;;;4990360;28;20030;-81
2021/05/20 00:03:26;;;;;;;43.17;28.25;;;8.50;95.80;;;;;;4989637;28;20094;-81
2021/05/20 00:05:52;;;;;;;37.35;26.60;;;8.40;95.80;;;;;;4991088;28;20065;-80
2021/05/20 00:08:18;;;;;;;39.90;29.38;;;8.40;95.80;;;;;;4991101;28;21777;-81
2021/05/20 00:10:44;;;;;;;42.03;28.73;;;8.40;95.80;;;;;;4992883;28;20030;-80
2021/05/20 00:13:09;;;;;;;43.72;29.83;;;8.30;95.80;;;;;;4995784;28;20035;-81
2021/05/20 00:15:35;;;;;;;45.25;30.20;;;8.30;95.90;;;;;;4996178;28;20026;-81
2021/05/20 00:18:00;;;;;;;47.22;31.85;;;8.30;95.90;;;;;;4996738;28;20066;-82
2021/05/20 00:20:26;;;;;;;49.90;33.70;;;8.20;95.90;;;;;;4991869;28;20038;-80
2021/05/20 00:22:52;;;;;;;50.17;33.25;;;8.20;95.90;;;;;;4994546;28;20034;-81
2021/05/20 00:25:17;;;;;;;55.42;33.53;;;8.20;96.00;;;;;;4993603;28;20030;-81
2021/05/20 00:27:43;;;;;;;52.40;34.90;;;8.10;96.00;;;;;;4995630;28;20124;-81
2021/05/20 00:30:12;;;;;;;49.40;35.42;;;8.10;96.00;;;;;;5001465;28;20022;-82
2021/05/20 00:32:38;;;;;;;54.08;35.17;;;8.10;96.00;;;;;;4995026;28;20090;-81
2021/05/20 00:35:05;;;;;;;48.25;33.42;;;8.10;96.10;;;;;;4993702;28;20129;-81
2021/05/20 00:37:30;;;;;;;58.20;35.97;;;8.10;96.10;;;;;;4992855;28;20029;-80
2021/05/20 00:39:56;;;;;;;49.45;34.13;;;8.10;96.10;;;;;;4994431;28;20030;-81
2021/05/20 00:42:22;;;;;;;56.65;35.92;;;8.10;96.20;;;;;;4994709;28;20030;-81
2021/05/20 00:44:58;;;;;;;57.78;38.08;;;8.00;96.20;;;;;;4995889;28;20508;-81
2021/05/20 00:47:26;;;;;;;50.20;33.58;;;8.10;96.30;;;;;;4993705;28;20037;-81
2021/05/20 00:49:53;;;;;;;61.35;37.40;;;8.00;96.20;;;;;;4995148;28;20022;-81
2021/05/20 00:52:19;;;;;;;55.92;36.97;;;8.00;96.20;;;;;;5003280;28;20041;-82
2021/05/20 00:54:50;;;;;;;52.55;34.25;;;8.00;96.40;;;;;;4994806;28;20037;-81
2021/05/20 00:57:17;;;;;;;53.50;34.88;;;7.90;96.30;;;;;;4996880;28;20091;-81
2021/05/20 00:59:42;;;;;;;62.03;38.33;;;7.90;96.20;;;;;;4991919;28;20600;-82
2021/05/20 01:02:10;;;;;;;64.85;39.42;;;7.80;96.30;;;;;;4990050;28;20134;-81
2021/05/20 01:04:36;;;;;;;59.28;36.83;;;7.80;96.30;;;;;;4993971;28;20118;-81
2021/05/20 01:07:01;;;;;;;56.05;34.72;;;7.80;96.40;;;;;;4989977;28;20809;-82
2021/05/20 01:09:27;;;;;;;50.92;33.58;;;7.70;96.30;;;;;;4993653;28;21084;-81
2021/05/20 01:11:53;;;;;;;69.47;32.20;;;7.60;96.40;;;;;;4994483;28;20046;-82
2021/05/20 01:14:18;;;;;;;52.53;35.17;;;7.60;96.40;;;;;;4994413;28;20038;-82
2021/05/20 01:16:47;;;;;;;54.03;35.33;;;7.60;96.50;;;;;;4996676;28;20034;-80
2021/05/20 01:19:14;;;;;;;66.78;38.15;;;7.50;96.60;;;;;;4994383;28;20385;-81
2021/05/20 01:21:40;;;;;;;67.93;40.10;;;7.50;96.70;;;;;;4990192;28;20038;-81
2021/05/20 01:24:07;;;;;;;67.40;39.67;;;7.60;96.60;;;;;;4993177;28;20581;-81
2021/05/20 01:26:39;;;;;;;65.25;40.00;;;7.60;96.70;;;;;;5011371;27;20181;-82
2021/05/20 01:29:07;;;;;;;63.67;39.67;;;7.60;96.70;;;;;;4995602;28;20094;-80
2021/05/20 01:31:33;;;;;;;57.13;36.95;;;7.60;96.70;;;;;;4996065;28;20431;-82
2021/05/20 01:33:59;;;;;;;66.28;39.33;;;7.60;96.60;;;;;;4994062;28;20053;-81
2021/05/20 01:36:29;;;;;;;64.38;39.30;;;7.60;96.60;;;;;;4979175;28;20027;-81
2021/05/20 01:38:58;;;;;;;64.85;39.00;;;7.50;96.60;;;;;;4993770;28;20045;-81
2021/05/20 01:41:23;;;;;;;52.80;33.75;;;7.50;96.60;;;;;;4995214;28;20034;-82
2021/05/20 01:43:49;;;;;;;49.78;31.85;;;7.50;96.60;;;;;;4994106;28;20037;-81
2021/05/20 01:46:15;;;;;;;63.47;37.38;;;7.40;96.60;;;;;;4991998;28;20030;-80
2021/05/20 01:48:42;;;;;;;57.55;34.97;;;7.30;96.70;;;;;;4996354;28;20029;-80
2021/05/20 01:51:13;;;;;;;55.33;34.92;;;7.30;96.80;;;;;;4990754;28;20050;-82
2021/05/20 01:53:41;;;;;;;60.92;37.08;;;7.30;96.90;;;;;;4996834;28;20401;-81
2021/05/20 01:56:08;;;;;;;67.72;39.75;;;7.40;97.10;;;;;;4991760;28;20114;-81
2021/05/20 01:58:34;;;;;;;65.28;40.03;;;7.40;97.20;;;;;;4992700;28;20453;-81
2021/05/20 02:01:00;;;;;;;67.45;41.28;;;7.60;97.20;;;;;;4990447;28;20121;-81
2021/05/20 02:03:26;;;;;;;77.05;43.03;;;7.70;97.20;;;;;;4990397;28;20041;-81
2021/05/20 02:05:52;;;;;;;79.97;44.97;;;7.70;97.10;;;;;;4993107;28;20531;-81
2021/05/20 02:08:17;;;;;;;94.25;47.08;;;7.80;97.50;;;;;;4990022;28;20026;-80
2021/05/20 02:10:43;;;;;;;91.97;47.50;;;8.00;97.20;;;;;;4992316;28;20033;-80
2021/05/20 02:13:10;;;;;;;99.93;48.78;;;8.10;97.10;;;;;;4991878;28;20174;-80
2021/05/20 02:15:37;;;;;;;115.78;53.97;;;8.10;97.00;;;;;;4990289;28;20032;-81
2021/05/20 02:18:06;;;;;;;114.47;54.13;;;8.20;97.00;;;;;;4991420;28;20046;-80
2021/05/20 02:20:33;;;;;;;112.65;51.78;;;8.30;97.00;;;;;;4992103;28;20033;-81
2021/05/20 02:22:58;;;;;;;158.25;58.05;;;8.40;97.00;;;;;;4996401;28;20090;-81
2021/05/20 02:25:24;;;;;;;135.05;54.00;;;8.40;97.00;;;;;;4990579;28;20034;-81
2021/05/20 02:27:50;;;;;;;155.73;53.83;;;8.50;97.00;;;;;;4991551;28;20034;-81
2021/05/20 02:30:16;;;;;;;272.13;57.38;;;8.60;97.00;;;;;;4991492;28;20027;-81
2021/05/20 02:32:42;;;;;;;306.23;56.42;;;8.60;97.00;;;;;;4993701;28;20049;-81
2021/05/20 02:35:09;;;;;;;224.88;54.47;;;8.60;97.00;;;;;;4999434;28;20031;-81
2021/05/20 02:37:35;;;;;;;276.33;55.03;;;8.60;97.00;;;;;;4991404;28;20048;-81
2021/05/20 02:40:02;;;;;;;254.77;48.88;;;8.70;97.10;;;;;;4994785;28;20030;-81
2021/05/20 02:42:28;;;;;;;285.45;50.08;;;8.60;97.10;;;;;;4990779;28;20052;-81
2021/05/20 02:44:53;;;;;;;311.42;53.47;;;8.70;97.10;;;;;;4978425;28;20027;-81
2021/05/20 02:47:19;;;;;;;399.88;54.17;;;8.70;97.40;;;;;;4991681;28;20034;-81
2021/05/20 02:49:45;;;;;;;277.17;49.80;;;8.70;97.10;;;;;;4993556;28;20074;-82
2021/05/20 02:52:10;;;;;;;342.05;51.92;;;8.70;97.10;;;;;;4992216;28;20030;-81
2021/05/20 02:54:37;;;;;;;229.25;46.42;;;8.70;97.20;;;;;;4992072;28;21793;-82
2021/05/20 02:57:06;;;;;;;178.10;43.75;;;8.70;97.10;;;;;;4999324;28;20059;-81
2021/05/20 02:59:32;;;;;;;276.08;48.15;;;8.70;97.20;;;;;;5006651;28;20034;-82
2021/05/20 03:02:04;;;;;;;339.42;44.17;;;8.70;97.40;;;;;;4990970;28;20032;-81
2021/05/20 03:04:37;;;;;;;246.00;47.78;;;8.70;97.20;;;;;;4994770;28;20121;-82
2021/05/20 03:07:04;;;;;;;230.80;48.47;;;8.70;97.20;;;;;;4989617;28;20038;-81
2021/05/20 03:09:30;;;;;;;485.92;56.08;;;8.70;97.20;;;;;;4994747;28;20546;-81
2021/05/20 03:11:58;;;;;;;261.60;46.97;;;8.70;97.30;;;;;;4993934;28;20046;-80
2021/05/20 03:14:25;;;;;;;366.95;48.50;;;8.80;97.20;;;;;;4990828;28;20026;-81
2021/05/20 03:16:50;;;;;;;385.00;48.55;;;8.70;97.20;;;;;;4988310;28;20401;-81
2021/05/20 03:19:16;;;;;;;371.23;47.35;;;8.70;97.10;;;;;;4977158;28;20054;-81
2021/05/20 03:21:42;;;;;;;276.38;48.60;;;8.60;97.10;;;;;;4987059;28;20473;-81
2021/05/20 03:24:08;;;;;;;286.75;49.53;;;8.70;97.30;;;;;;4984773;28;20030;-81
2021/05/20 03:26:34;;;;;;;357.20;46.38;;;8.70;97.30;;;;;;4987261;28;20063;-81
2021/05/20 03:28:59;;;;;;;232.60;47.97;;;8.70;97.30;;;;;;4980421;28;20817;-80
2021/05/20 03:31:25;;;;;;;289.95;49.78;;;8.70;97.30;;;;;;4983083;28;20433;-80
2021/05/20 03:33:51;;;;;;;316.20;46.85;;;8.70;97.20;;;;;;4992751;28;20039;-81
2021/05/20 03:36:16;;;;;;;268.35;44.65;;;8.70;97.20;;;;;;4981367;28;20060;-81
2021/05/20 03:38:42;;;;;;;341.33;46.00;;;8.70;97.10;;;;;;4985433;28;20044;-81
2021/05/20 03:41:08;;;;;;;282.45;45.22;;;8.60;97.20;;;;;;4987313;28;20041;-80
2021/05/20 03:43:36;;;;;;;255.75;47.42;;;8.60;97.20;;;;;;4977802;28;20026;-81
2021/05/20 03:46:03;;;;;;;292.92;45.85;;;8.60;97.20;;;;;;4986174;28;21047;-81
2021/05/20 03:48:30;;;;;;;270.92;42.70;;;8.60;97.30;;;;;;4980451;28;20030;-81
2021/05/20 03:51:00;;;;;;;242.23;45.30;;;8.60;97.20;;;;;;4987428;28;20096;-81
2021/05/20 03:53:30;;;;;;;320.27;45.42;;;8.60;97.20;;;;;;4990969;28;20736;-81
2021/05/20 03:55:59;;;;;;;231.70;45.22;;;8.60;97.30;;;;;;4986703;28;20629;-81
2021/05/20 03:58:26;;;;;;;204.27;40.08;;;8.60;97.20;;;;;;4990078;28;20049;-80
2021/05/20 04:00:52;;;;;;;207.45;42.70;;;8.60;97.20;;;;;;4985753;28;20026;-81
2021/05/20 04:03:28;;;;;;;186.57;40.33;;;8.60;97.20;;;;;;4989071;28;20044;-81
2021/05/20 04:05:55;;;;;;;439.50;46.05;;;8.50;97.20;;;;;;4989172;28;20029;-79
2021/05/20 04:08:21;;;;;;;219.68;38.00;;;8.50;97.20;;;;;;4985289;28;20528;-81
2021/05/20 04:10:47;;;;;;;238.70;41.70;;;8.50;97.20;;;;;;4982943;28;20133;-81
2021/05/20 04:13:13;;;;;;;257.65;42.33;;;8.50;97.30;;;;;;4985257;28;20084;-80
2021/05/20 04:15:39;;;;;;;322.00;45.80;;;8.50;97.20;;;;;;4995800;28;20022;-81
2021/05/20 04:18:05;;;;;;;253.32;40.50;;;8.50;97.30;;;;;;4985579;28;20042;-81
2021/05/20 04:20:31;;;;;;;262.88;40.45;;;8.60;97.30;;;;;;4991387;28;20030;-81
2021/05/20 04:22:57;;;;;;;355.20;46.67;;;8.60;97.30;;;;;;4986830;28;20556;-81
2021/05/20 04:25:22;;;;;;;306.60;43.30;;;8.60;97.30;;;;;;4986070;28;20390;-81
2021/05/20 04:27:48;;;;;;;459.42;42.78;;;8.70;97.40;;;;;;4986686;28;20057;-80
2021/05/20 04:30:14;;;;;;;565.95;53.20;;;8.70;97.30;;;;;;4984864;28;20036;-81
2021/05/20 04:32:39;;;;;;;437.67;43.17;;;8.70;97.30;;;;;;4991486;28;20077;-80
2021/05/20 04:35:06;;;;;;;422.60;50.00;;;8.80;97.30;;;;;;4994439;28;21419;-81
2021/05/20 04:37:31;;;;;;;306.90;43.90;;;8.80;97.30;;;;;;4985256;28;20162;-80
2021/05/20 04:39:57;;;;;;;232.30;40.55;;;8.80;97.30;;;;;;4992922;28;20030;-81
2021/05/20 04:42:22;;;;;;;523.13;49.55;;;8.90;97.30;;;;;;4992365;28;20026;-80
2021/05/20 04:44:48;;;;;;;222.63;43.33;;;8.90;97.30;;;;;;4989431;28;20041;-81
2021/05/20 04:47:13;;;;;;;291.00;46.13;;;9.00;97.30;;;;;;4990391;28;20062;-80
2021/05/20 04:49:39;;;;;;;490.67;51.85;;;9.00;97.30;;;;;;4987143;28;20121;-81
2021/05/20 04:52:05;;;;;;;235.38;47.10;;;9.00;97.30;;;;;;4985332;28;20087;-81
2021/05/20 04:54:30;;;;;;;233.85;49.92;;;9.00;97.20;;;;;;4983830;28;20157;-81
2021/05/20 04:56:56;;;;;;;246.82;49.22;;;9.10;97.30;;;;;;4985604;28;20642;-81
2021/05/20 04:59:21;;;;;;;250.73;53.30;;;9.10;97.20;;;;;;4987738;28;20519;-81
2021/05/20 05:01:47;;;;;;;511.80;55.97;;;9.20;97.20;;;;;;4990359;28;20432;-81
2021/05/20 05:04:12;;;;;;;180.13;47.20;;;9.20;97.20;;;;;;4996858;28;20079;-82
2021/05/20 05:06:38;;;;;;;215.50;50.05;;;9.30;97.30;;;;;;5005876;28;20032;-81
2021/05/20 05:09:04;;;;;;;343.60;61.42;;;9.30;97.20;;;;;;5009733;28;20380;-80
2021/05/20 05:11:29;;;;;;;319.10;61.42;;;9.40;97.30;;;;;;4999161;28;20033;-82
2021/05/20 05:13:55;;;;;;;468.75;65.47;;;9.50;97.30;;;;;;5001964;28;20045;-82
2021/05/20 05:16:20;;;;;;;163.35;49.33;;;9.60;97.20;;;;;;5000563;28;20029;-82
2021/05/20 05:18:46;;;;;;;237.05;56.10;;;9.60;97.10;;;;;;5000831;28;20033;-81
2021/05/20 05:21:11;;;;;;;144.43;50.10;;;9.70;97.10;;;;;;5004400;28;20117;-81
2021/05/20 05:23:38;;;;;;;147.85;50.65;;;9.70;97.00;;;;;;5000517;28;20030;-81
2021/05/20 05:26:04;;;;;;;144.93;49.40;;;9.70;97.10;;;;;;5003350;28;20030;-82
2021/05/20 05:28:29;;;;;;;119.68;44.90;;;9.70;97.00;;;;;;5006329;28;20037;-82
2021/05/20 05:30:55;;;;;;;134.73;45.58;;;9.80;97.00;;;;;;5005969;28;20056;-82
2021/05/20 05:33:22;;;;;;;124.47;46.05;;;9.80;96.80;;;;;;5002552;28;20042;-82
2021/05/20 05:35:48;;;;;;;135.68;44.00;;;9.80;96.80;;;;;;5005540;28;20095;-82
2021/05/20 05:38:14;;;;;;;154.40;49.38;;;9.80;96.90;;;;;;5004911;28;20022;-81
2021/05/20 05:40:40;;;;;;;128.57;45.30;;;9.90;97.00;;;;;;5002062;28;20031;-81
2021/05/20 05:43:05;;;;;;;128.90;45.47;;;9.90;96.80;;;;;;5004974;28;20049;-82
2021/05/20 05:45:31;;;;;;;125.88;45.42;;;9.90;96.70;;;;;;5004427;28;20738;-82
2021/05/20 05:47:57;;;;;;;112.63;42.67;;;9.90;96.70;;;;;;5013406;28;20055;-82
2021/05/20 05:50:22;;;;;;;192.07;45.88;;;9.90;96.60;;;;;;5006593;28;20028;-80
2021/05/20 05:52:48;;;;;;;179.05;46.20;;;9.90;96.70;;;;;;5008188;28;20114;-82
2021/05/20 05:55:13;;;;;;;118.53;40.83;;;9.90;96.60;;;;;;5005549;28;20033;-82
2021/05/20 05:57:39;;;;;;;120.43;41.72;;;9.90;96.70;;;;;;5002487;28;20124;-82
2021/05/20 06:00:06;;;;;;;138.15;42.05;;;10.00;96.70;;;;;;5007674;28;20117;-81
2021/05/20 06:02:32;;;;;;;122.80;41.95;;;10.00;96.70;;;;;;5006446;28;20022;-82
2021/05/20 06:04:59;;;;;;;120.10;40.45;;;10.10;96.60;;;;;;5005318;28;20049;-81
2021/05/20 06:07:24;;;;;;;165.05;43.05;;;10.10;96.50;;;;;;5007250;28;20169;-80
2021/05/20 06:09:50;;;;;;;188.63;42.28;;;10.10;96.40;;;;;;5008422;28;20144;-81
2021/05/20 06:12:16;;;;;;;154.32;40.70;;;10.10;96.30;;;;;;5008205;28;20061;-80
2021/05/20 06:14:42;;;;;;;152.35;38.30;;;10.10;96.30;;;;;;5066028;28;20032;-81
2021/05/20 06:17:08;;;;;;;180.43;42.88;;;10.00;96.30;;;;;;5009638;28;20540;-80
2021/05/20 06:19:34;;;;;;;174.63;42.45;;;10.00;96.30;;;;;;5000976;28;20113;-80
2021/05/20 06:21:59;;;;;;;193.73;44.75;;;10.00;96.40;;;;;;5003842;28;20052;-80
2021/05/20 06:24:25;;;;;;;139.52;45.00;;;10.10;96.10;;;;;;5005013;28;20049;-80
2021/05/20 06:26:51;;;;;;;147.88;43.05;;;10.00;96.10;;;;;;4998935;28;20038;-82
2021/05/20 06:29:16;;;;;;;131.10;47.45;;;10.00;96.30;;;;;;5001083;28;20022;-81
2021/05/20 06:31:42;;;;;;;128.63;45.42;;;10.00;96.30;;;;;;5003661;28;20117;-82
2021/05/20 06:34:07;;;;;;;153.38;47.53;;;10.10;96.30;;;;;;5002085;28;20038;-81
2021/05/20 06:36:34;;;;;;;116.53;46.70;;;10.10;96.20;;;;;;5008946;28;20028;-80
2021/05/20 06:38:59;;;;;;;118.03;45.95;;;10.20;96.40;;;;;;5010671;28;20026;-81
2021/05/20 06:41:25;;;;;;;114.78;47.90;;;10.40;96.40;;;;;;5010370;28;20030;-81
2021/05/20 06:43:50;;;;;;;118.35;47.67;;;10.50;96.30;;;;;;5012813;28;20049;-81
2021/05/20 06:46:16;;;;;;;118.18;50.28;;;10.60;96.20;;;;;;4994086;28;20486;-80
2021/05/20 06:48:42;;;;;;;114.50;49.70;;;10.70;96.10;;;;;;5009551;28;20437;-81
2021/05/20 06:51:07;;;;;;;98.70;45.65;;;10.70;95.90;;;;;;5009278;28;20485;-82
2021/05/20 06:53:35;;;;;;;109.38;48.30;;;10.70;95.90;;;;;;5007882;28;20113;-81
2021/05/20 06:56:03;;;;;;;112.07;48.33;;;10.70;95.80;;;;;;4992107;28;20038;-77
2021/05/20 07:01:13;;;;;;;110.90;45.15;;;10.80;95.70;;;;;;5006824;28;20036;-81
2021/05/20 07:03:39;;;;;;;98.15;44.38;;;10.80;95.70;;;;;;5007950;28;20029;-81
2021/05/20 07:06:05;;;;;;;96.13;41.88;;;10.80;95.60;;;;;;5008409;28;20109;-83
2021/05/20 07:08:30;;;;;;;91.05;39.67;;;10.80;95.50;;;;;;5010474;28;20022;-82
2021/05/20 07:10:57;;;;;;;78.88;37.90;;;10.80;95.50;;;;;;5000592;28;20022;-82
2021/05/20 07:13:24;;;;;;;84.80;38.20;;;10.80;95.40;;;;;;5004738;28;20082;-82
2021/05/20 07:15:51;;;;;;;73.88;35.55;;;10.80;95.30;;;;;;4994824;28;20155;-82
2021/05/20 07:18:17;;;;;;;70.70;34.80;;;10.80;95.30;;;;;;5002925;28;20056;-82
2021/05/20 07:20:42;;;;;;;76.22;35.60;;;10.80;95.30;;;;;;5022679;28;20079;-82
2021/05/20 07:23:13;;;;;;;73.88;35.58;;;10.90;95.30;;;;;;5003033;28;20166;-81
2021/05/20 07:25:40;;;;;;;65.22;33.35;;;11.00;95.20;;;;;;5014332;28;20022;-81
2021/05/20 07:28:06;;;;;;;61.53;32.60;;;11.10;95.10;;;;;;4999767;28;20075;-82
2021/05/20 07:30:32;;;;;;;65.22;34.78;;;11.10;94.90;;;;;;5004849;28;20019;-81
2021/05/20 07:32:58;;;;;;;56.40;31.55;;;11.20;94.80;;;;;;4999154;28;20045;-81
2021/05/20 07:35:24;;;;;;;56.67;32.38;;;11.30;94.80;;;;;;5006990;28;20105;-81
2021/05/20 07:37:49;;;;;;;56.58;32.38;;;11.40;94.70;;;;;;5002735;28;20083;-81
2021/05/20 07:40:16;;;;;;;54.55;32.90;;;11.40;94.60;;;;;;5003514;28;20025;-79
2021/05/20 07:42:42;;;;;;;55.35;32.17;;;11.50;94.60;;;;;;5007689;28;20037;-80
2021/05/20 07:45:10;;;;;;;52.03;30.20;;;11.60;94.50;;;;;;5002154;28;20029;-79
2021/05/20 07:47:36;;;;;;;46.85;28.85;;;11.80;94.40;;;;;;4999215;28;20114;-78
2021/05/20 07:50:02;;;;;;;41.45;26.50;;;11.90;94.10;;;;;;5000656;28;20121;-80
2021/05/20 07:52:27;;;;;;;40.72;27.67;;;12.00;93.90;;;;;;5004048;28;20030;-81
2021/05/20 07:54:54;;;;;;;41.30;27.00;;;12.10;93.70;;;;;;4984292;28;20061;-80
2021/05/20 07:57:19;;;;;;;44.20;28.98;;;12.20;93.50;;;;;;5005243;28;20044;-80
2021/05/20 07:59:45;;;;;;;41.08;28.30;;;12.30;93.50;;;;;;5002526;28;20489;-79
2021/05/20 08:04:37;;;;;;;43.35;27.35;;;12.50;93.30;;;;;;5021444;28;20048;-80
2021/05/20 08:07:24;;;;;;;39.28;26.45;;;12.50;93.10;;;;;;5009399;28;20067;-80
2021/05/20 08:10:00;;;;;;;46.65;27.67;;;12.50;93.10;;;;;;4999316;28;20117;-80
2021/05/20 08:12:26;;;;;;;45.53;29.00;;;12.70;92.90;;;;;;5007553;28;20049;-80
2021/05/20 08:14:53;;;;;;;43.08;28.20;;;12.80;92.80;;;;;;5000531;28;20026;-80
2021/05/20 08:17:19;;;;;;;39.70;26.38;;;12.90;92.60;;;;;;5007327;28;20110;-80
2021/05/20 08:19:44;;;;;;;40.50;27.58;;;13.00;92.50;;;;;;5000765;28;20159;-80
2021/05/20 08:22:10;;;;;;;32.08;23.60;;;13.10;92.40;;;;;;4999830;28;20034;-80
2021/05/20 08:24:35;;;;;;;32.00;23.48;;;13.10;92.10;;;;;;5009513;28;20026;-78
2021/05/20 08:27:01;;;;;;;33.97;22.75;;;13.10;92.10;;;;;;5009044;28;20530;-80
2021/05/20 08:29:28;;;;;;;24.95;19.23;;;13.20;91.90;;;;;;5004978;28;20507;-81
2021/05/20 08:31:54;;;;;;;29.30;22.30;;;13.30;91.70;;;;;;5004502;28;20045;-80
2021/05/20 08:34:19;;;;;;;28.20;21.58;;;13.50;91.40;;;;;;5003453;28;20034;-79
2021/05/20 08:36:45;;;;;;;27.00;21.67;;;13.40;91.30;;;;;;5005991;28;20127;-82
2021/05/20 08:39:10;;;;;;;28.10;21.65;;;13.40;91.00;;;;;;5003604;28;20377;-80
2021/05/20 08:41:36;;;;;;;29.00;21.98;;;13.30;90.80;;;;;;5006041;28;20025;-79
2021/05/20 08:44:13;;;;;;;26.13;20.00;;;13.10;90.90;;;;;;5007288;28;20393;-79
2021/05/20 08:46:39;;;;;;;26.50;19.33;;;13.10;91.00;;;;;;5014734;28;20049;-81
2021/05/20 08:49:14;;;;;;;28.35;19.30;;;13.10;91.00;;;;;;4996528;28;20076;-80
2021/05/20 08:51:45;;;;;;;24.38;19.02;;;13.20;90.80;;;;;;5003856;28;20026;-82
2021/05/20 08:54:13;;;;;;;24.10;19.17;;;13.20;90.60;;;;;;5003504;28;20095;-80
2021/05/20 08:56:46;;;;;;;24.80;19.23;;;13.10;90.50;;;;;;5002625;28;20022;-80
2021/05/20 08:59:13;;;;;;;26.02;19.17;;;13.10;90.60;;;;;;5001460;28;20022;-80
2021/05/20 09:01:40;;;;;;;22.35;17.63;;;13.10;90.80;;;;;;5006278;28;20506;-80
2021/05/20 09:04:07;;;;;;;26.38;19.48;;;13.20;90.60;;;;;;5008873;28;20029;-81
2021/05/20 09:06:52;;;;;;;23.80;17.98;;;13.20;90.30;;;;;;5022946;28;20034;-81
2021/05/20 09:09:28;;;;;;;28.45;20.70;;;13.20;90.10;;;;;;5005297;28;20044;-79
2021/05/20 09:11:56;;;;;;;29.50;21.23;;;13.20;90.30;;;;;;5003009;28;20065;-80
2021/05/20 09:14:41;;;;;;;34.78;22.70;;;13.30;90.30;;;;;;5000831;28;20055;-80
2021/05/20 09:17:14;;;;;;;33.80;22.20;;;13.50;90.40;;;;;;5006112;28;20476;-80
2021/05/20 09:19:42;;;;;;;38.10;22.83;;;13.70;90.10;;;;;;5010658;28;20034;-81
2021/05/20 09:22:10;;;;;;;33.28;22.98;;;13.70;89.50;;;;;;5005690;28;20026;-81
2021/05/20 09:24:47;;;;;;;33.97;22.77;;;13.80;89.40;;;;;;5006705;28;20034;-82
2021/05/20 09:27:36;;;;;;;33.13;22.38;;;14.10;89.40;;;;;;5006593;28;20052;-81
2021/05/20 09:30:21;;;;;;;33.75;21.85;;;14.30;88.90;;;;;;5012196;28;20033;-81
2021/05/20 09:32:52;;;;;;;33.78;21.50;;;14.50;87.70;;;;;;5006368;28;20042;-81
2021/05/20 09:35:19;;;;;;;34.15;22.73;;;14.60;87.60;;;;;;5001283;28;20049;-81
2021/05/20 09:37:52;;;;;;;37.13;26.23;;;14.70;87.30;;;;;;4998101;28;20023;-80
2021/05/20 09:40:21;;;;;;;36.63;25.50;;;14.70;85.60;;;;;;5010413;28;20031;-81
2021/05/20 09:42:48;;;;;;;42.55;29.20;;;14.80;85.90;;;;;;5000510;28;20121;-80
2021/05/20 09:45:17;;;;;;;46.28;32.05;;;14.80;85.70;;;;;;5003411;28;20037;-79
2021/05/20 09:47:43;;;;;;;43.60;29.45;;;14.90;84.70;;;;;;5002507;28;20492;-79
2021/05/20 09:50:19;;;;;;;49.92;32.90;;;14.90;84.70;;;;;;5012229;28;20031;-81
2021/05/20 09:52:45;;;;;;;46.40;31.83;;;14.90;84.70;;;;;;5008562;28;20034;-80
2021/05/20 09:55:24;;;;;;;46.88;32.45;;;15.00;84.70;;;;;;5003158;28;20023;-80
2021/05/20 09:57:50;;;;;;;45.08;29.73;;;15.20;84.50;;;;;;5001989;28;20511;-78
2021/05/20 10:00:25;;;;;;;49.35;32.30;;;15.40;84.10;;;;;;5003957;28;20075;-81
2021/05/20 10:03:12;;;;;;;47.88;33.05;;;15.50;83.50;;;;;;5004132;28;20508;-79
2021/05/20 10:05:40;;;;;;;67.13;43.47;;;15.50;83.00;;;;;;4997970;28;20094;-80
2021/05/20 10:08:11;;;;;;;72.60;48.05;;;15.40;82.60;;;;;;5003943;28;20033;-81
2021/05/20 10:10:39;;;;;;;72.32;48.33;;;15.40;82.40;;;;;;5003777;28;20026;-81
2021/05/20 10:13:28;;;;;;;61.85;42.03;;;15.60;81.80;;;;;;5000805;28;20049;-81
2021/05/20 10:15:55;;;;;;;68.93;46.28;;;15.80;82.00;;;;;;5000262;28;20437;-82
2021/05/20 10:18:25;;;;;;;74.90;47.95;;;15.80;80.30;;;;;;4996175;28;20034;-81
2021/05/20 10:20:54;;;;;;;64.22;44.60;;;15.60;81.20;;;;;;5001157;28;20035;-80
2021/05/20 10:23:22;;;;;;;62.28;43.95;;;15.70;82.30;;;;;;4997922;28;20042;-81
2021/05/20 10:25:50;;;;;;;62.95;45.03;;;15.80;81.80;;;;;;5001280;28;20035;-80
2021/05/20 10:28:17;;;;;;;67.40;47.70;;;15.80;81.40;;;;;;5002514;28;20018;-81
2021/05/20 10:30:45;;;;;;;63.53;44.70;;;15.80;81.30;;;;;;5004530;28;20019;-80
2021/05/20 10:33:12;;;;;;;63.75;44.00;;;15.90;81.20;;;;;;4998775;28;20095;-79
2021/05/20 10:35:50;;;;;;;62.85;43.53;;;15.90;80.70;;;;;;5001030;28;20030;-79
2021/05/20 10:38:34;;;;;;;63.75;44.65;;;15.90;80.60;;;;;;5000280;28;20071;-80
2021/05/20 10:41:10;;;;;;;61.92;43.05;;;16.00;80.50;;;;;;4996770;28;20489;-79
2021/05/20 10:43:37;;;;;;;58.47;41.72;;;16.10;79.80;;;;;;5001146;28;20026;-80
2021/05/20 10:46:08;;;;;;;61.15;42.80;;;16.10;79.60;;;;;;4999761;28;20033;-79
2021/05/20 10:48:34;;;;;;;67.22;46.90;;;16.30;79.60;;;;;;5012404;28;20077;-80
2021/05/20 10:51:05;;;;;;;63.22;44.63;;;16.30;79.10;;;;;;5006931;28;20107;-80
2021/05/20 10:53:48;;;;;;;61.58;42.63;;;16.30;79.10;;;;;;4998700;28;20041;-79
2021/05/20 10:56:23;;;;;;;56.42;40.08;;;16.50;79.30;;;;;;4998752;28;20374;-80
2021/05/20 10:58:50;;;;;;;64.13;44.30;;;16.60;78.70;;;;;;5000805;28;20031;-79
2021/05/20 11:01:25;;;;;;;62.85;44.28;;;16.60;77.80;;;;;;5005068;28;20086;-80
2021/05/20 11:03:56;;;;;;;52.25;39.13;;;16.60;78.10;;;;;;5004692;28;20130;-80
2021/05/20 11:06:24;;;;;;;54.80;38.57;;;16.60;77.90;;;;;;5004317;28;20026;-80
2021/05/20 11:08:53;;;;;;;49.22;36.15;;;16.60;78.30;;;;;;5001375;28;20521;-80
2021/05/20 11:11:31;;;;;;;51.50;36.58;;;16.60;76.90;;;;;;5005416;28;20030;-80
2021/05/20 11:14:01;;;;;;;45.80;34.05;;;16.70;77.60;;;;;;5000103;28;20037;-81
2021/05/20 11:16:34;;;;;;;45.03;32.65;;;16.80;76.90;;;;;;5003904;28;20034;-80
2021/05/20 11:19:24;;;;;;;42.30;32.10;;;17.00;77.00;;;;;;5000309;28;20025;-81
2021/05/20 11:24:27;;;;;;;41.38;28.95;;;17.20;75.30;;;;;;5006690;28;20033;-80
2021/05/20 11:26:57;;;;;;;39.47;30.30;;;17.30;75.60;;;;;;5002107;28;20030;-80
2021/05/20 11:29:25;;;;;;;37.45;28.27;;;17.60;75.90;;;;;;5010290;28;20059;-80
2021/05/20 11:32:01;;;;;;;36.72;27.08;;;17.80;74.70;;;;;;5004455;28;20496;-79
2021/05/20 11:37:38;;;;;;;31.50;25.65;;;18.20;73.60;;;;;;5001050;28;20022;-78
2021/05/20 11:40:06;;;;;;;31.08;23.80;;;18.30;72.50;;;;;;5005018;28;20489;-78
2021/05/20 11:42:33;;;;;;;31.45;24.90;;;18.50;72.00;;;;;;5004337;28;20264;-80
2021/05/20 11:44:59;;;;;;;30.77;25.15;;;18.60;72.00;;;;;;5002819;28;20030;-79
2021/05/20 11:47:25;;;;;;;30.70;23.00;;;18.70;71.00;;;;;;4994391;28;20029;-79
2021/05/20 11:49:51;;;;;;;27.15;23.02;;;18.80;70.20;;;;;;5003320;28;20037;-79
2021/05/20 11:52:19;;;;;;;28.98;23.95;;;18.80;70.20;;;;;;4995628;28;20041;-80
2021/05/20 11:54:55;;;;;;;23.90;21.30;;;18.80;68.70;;;;;;4996300;28;20029;-78
2021/05/20 11:57:24;;;;;;;27.05;23.13;;;18.70;68.50;;;;;;4998404;28;20029;-78
2021/05/20 11:59:54;;;;;;;27.08;22.35;;;18.50;68.40;;;;;;4998226;28;20022;-78
2021/05/20 12:02:21;;;;;;;22.80;19.38;;;18.30;68.90;;;;;;4997084;28;20489;-78
2021/05/20 12:04:47;;;;;;;21.25;18.88;;;18.20;69.10;;;;;;5005702;28;20038;-78
2021/05/20 12:07:27;;;;;;;22.00;19.48;;;18.10;69.00;;;;;;5008305;28;20037;-79
2021/05/20 12:09:54;;;;;;;21.48;18.08;;;18.10;69.20;;;;;;5007024;28;20026;-79
2021/05/20 12:12:21;;;;;;;21.02;17.73;;;18.10;69.20;;;;;;5002697;28;20451;-79
2021/05/20 12:14:47;;;;;;;19.13;17.15;;;18.30;69.10;;;;;;5006208;28;20111;-78
2021/05/20 12:17:21;;;;;;;18.95;16.33;;;18.40;68.60;;;;;;5003878;28;20029;-78
2021/05/20 12:19:52;;;;;;;18.50;12.63;;;18.60;68.40;;;;;;5007453;28;20032;-79
2021/05/20 12:22:31;;;;;;;12.23;10.95;;;18.70;66.90;;;;;;5001009;28;20038;-79
2021/05/20 12:24:59;;;;;;;16.52;11.52;;;18.60;65.60;;;;;;5015580;28;20022;-79
2021/05/20 12:27:25;;;;;;;12.18;10.88;;;18.70;65.10;;;;;;4997496;28;20067;-80
2021/05/20 12:29:55;;;;;;;13.30;11.00;;;18.60;65.00;;;;;;5001923;28;20081;-80
2021/05/20 12:32:38;;;;;;;12.38;11.18;;;18.60;64.90;;;;;;5003218;28;20076;-79
2021/05/20 12:35:19;;;;;;;13.15;11.82;;;18.70;64.90;;;;;;5006101;28;20038;-80
2021/05/20 12:37:58;;;;;;;13.85;12.45;;;18.80;65.10;;;;;;5004072;28;20481;-80
2021/05/20 12:40:52;;;;;;;14.18;11.77;;;18.90;64.80;;;;;;5002872;28;20021;-79
2021/05/20 12:43:17;;;;;;;12.52;11.25;;;18.90;64.00;;;;;;5003102;28;20065;-79